Tiempo atmosférico en la estación meteorológica de La Palma Aeropuerto, Santa Cruz de Tenerife (33 m.)



Fecha
DESCASC
Temp. máxima en grados centígrados (hora)
DESCASC
Temp. mínima en grados centígrados (hora)
DESCASC
Temp. media en grados centígrados
DESCASC
Racha de viento máxima en m/sg (hora)
DESCASC
Velocidad máxima media en intervalos de 10 minutos(hora)
DESCASC
Precipitaciones diarias en mm
DESCASC
Precipitaciones de 00:00 a 06:00 en mm
DESCASC
Precipitaciones de 06:00 a 12:00 en mm
DESCASC
Precipitaciones de 12:00 a 18:00 en mm
DESCASC
Precipitaciones de 18:00 a 24:00 en mm
DESCASC
23-06-2019 26 (13:20) 19 (07:40) 22.5 5 (10:50) 3.89 (15:40) 0 0 0 0 0
22-06-2019 24.4 (11:30) 18.6 (07:00) 21.5 9.17 (17:40) 6.67 (18:00) 0 0 0 0 0
21-06-2019 -- (--) -- (--) -- -- (--) -- (--) -- 0 0 -- 0
20-06-2019 24.4 (12:10) 18.3 (00:00) 21.3 11.67 (15:40) 9.72 (15:40) 0 0 0 0 0
19-06-2019 25 (11:30) 18.7 (00:00) 21.9 9.17 (14:30) 7.22 (14:40) 0 0 0 0 0
18-06-2019 24.6 (09:40) 19.8 (00:00) 22.2 5 (14:10) 4.44 (16:10) 0 0 0 0 0
17-06-2019 25.6 (14:20) 18 (00:00) 21.8 5.83 (06:20) 4.17 (08:00) 0 0 0 0 0
16-06-2019 23.7 (13:00) 16.9 (00:00) 20.3 5 (13:40) 3.89 (15:40) -- 0 -- 0 0
15-06-2019 22.4 (12:30) 18.3 (00:00) 20.3 7.22 (19:10) 3.89 (01:30) 0 0 0 0 0
14-06-2019 24.3 (10:40) 18.8 (00:00) 21.5 8.33 (21:40) 4.44 (12:30) 0 0 0 0 0
13-06-2019 22 (13:40) 19.1 (00:00) 20.6 11.39 (00:20) 9.17 (00:20) 0 0 0 0 0
12-06-2019 22.5 (11:50) 18.7 (00:00) 20.6 15 (10:20) 11.67 (10:30) 0 0 0 0 0
11-06-2019 23.6 (14:40) 19.1 (00:00) 21.4 17.5 (13:00) 14.44 (16:40) 0 0 0 0 0
10-06-2019 23.6 (14:50) 19.1 (00:00) 21.4 12.78 (13:50) 10.56 (17:40) 0 0 0 0 0
09-06-2019 24.1 (13:30) 18.4 (00:00) 21.3 12.78 (14:30) 10.28 (19:40) 0 0 0 0 0
08-06-2019 21.4 (01:10) 18.3 (00:00) 19.8 10.28 (16:00) 8.61 (16:00) 8.3 4.8 3.5 0 0
07-06-2019 24 (15:10) 18.1 (00:00) 21.1 11.67 (07:40) 9.44 (07:50) 0 0 0 0 0
06-06-2019 23 (14:30) 19.3 (00:00) 21.1 11.39 (10:30) 8.89 (10:30) 0 0 0 0 0
05-06-2019 23.6 (09:40) 20.2 (00:00) 21.9 10.83 (02:10) 8.06 (02:10) 0 0 0 0 0
04-06-2019 23.8 (14:20) 19.4 (00:00) 21.6 13.33 (18:10) 10 (10:30) 0 0 0 0 0
03-06-2019 26.1 (10:00) 20.7 (00:00) 23.4 10.83 (13:20) 7.22 (11:30) 0 0 0 0 0
02-06-2019 24.6 (13:20) 18.4 (00:00) 21.5 9.72 (18:10) 7.78 (18:10) 0 0 0 0 0
01-06-2019 -- (--) -- (--) -- -- (--) -- (--) -- 0 0 -- 0
31-05-2019 23.2 (13:20) 17.4 (00:00) 20.3 14.44 (18:30) 10 (18:10) 0 0 0 0 0
30-05-2019 23.5 (13:20) 17.4 (00:00) 20.4 11.67 (21:10) 8.33 (20:00) 0 0 0 0 0
29-05-2019 22.7 (14:50) 18.7 (00:00) 20.7 13.89 (21:50) 9.72 (21:50) 0 0 0 0 0
28-05-2019 23.3 (12:50) 18.6 (00:00) 20.9 10.83 (21:30) 8.61 (23:00) 0 0 0 0 0
27-05-2019 23.8 (13:00) 18.5 (00:00) 21.1 10.83 (15:20) 8.61 (22:50) 0 0 0 0 0

Gráficas

Temp. máximas Temp. mínimas Temp. medias Precipitaciones Rachas de viento máximas Velocidades máximas media en intervalos de 10 minutos

Datos horarios

Fecha y hora oficial Temperatura (ºC) Velocidad del viento (km/h) Dirección del viento Racha (km/h) Dirección de racha Precipitación (mm) Presión (hPa) Tendencia (hPa) Humedad (%)
2019-06-25 23:00:00 22 34 Norte 46 Norte 0 1014.8 1.4 74
2019-06-25 22:00:00 22.2 36 Norte 46 Norte 0 1014.3 1.1 76
2019-06-25 21:00:00 22.5 31 Norte 45 Norte 0 1013.7 0.4 76
2019-06-25 20:00:00 22.7 30 Norte 41 Nordeste 0 1013.4 -0.1 75
2019-06-25 19:00:00 22.9 32 Norte 41 Norte 0 1013.2 -0.3 76
2019-06-25 18:00:00 23.2 32 Nordeste 42 Nordeste 0 1013.3 -0.3 75
2019-06-25 17:00:00 23.2 32 Nordeste 41 Nordeste 0 1013.5 0 76
2019-06-25 16:00:00 23.4 32 Nordeste 41 Nordeste 0 1013.5 0.1 74
2019-06-25 15:00:00 23.5 30 Nordeste 41 Nordeste 0 1013.6 0.5 73
2019-06-25 14:00:00 23.6 30 Nordeste 48 Norte 0 1013.5 0.7 75
2019-06-25 13:00:00 23.6 36 Nordeste 48 Nordeste 0 1013.4 0.8 75
2019-06-25 12:00:00 23.6 33 Nordeste 41 Nordeste 0 1013.1 1.1 73
2019-06-25 11:00:00 24.3 27 Norte 42 Nordeste 0 1012.8 1.4 70
2019-06-25 10:00:00 24.9 26 Norte 35 Nordeste 0 1012.6 1.4 68
2019-06-25 09:00:00 23.6 5 Nordeste 9 Nordeste 0 1012 0.8 73
2019-06-25 08:00:00 22.1 0 Calma 11 Sudoeste 0 1011.4 0.3 81
2019-06-25 07:00:00 21.9 6 Sudoeste 17 Nordeste 0 1011.2 -0.1 84
2019-06-25 06:00:00 22.2 13 Norte 24 Norte 0 1011.2 -0.5 85
2019-06-25 05:00:00 22.8 8 Sur 13 Sur 0 1011.1 -1 84
2019-06-25 04:00:00 23.1 10 Sur 15 Sur 0 1011.3 -1.1 83
2019-06-25 03:00:00 23.1 0 Calma 13 Norte 0 1011.7 -0.8 84
2019-06-25 02:00:00 23.2 6 Norte 9 Norte 0 1012.1 -0.1 86
2019-06-25 01:00:00 22.9 0 Calma 9 Este 0 1012.4 0.7 85
2019-06-25 00:00:00 23.3 8 Este 11 Este 0 1012.5 1.1 85
2019-06-24 23:00:00 23 2 Sur 9 Este 0 1012.2 1.1 85
2019-06-24 22:00:00 23 0 Calma 8 Nordeste 0 1011.7 0.9 89
2019-06-24 21:00:00 23.6 4 Nordeste 17 Nordeste 0 1011.4 0.7 85
2019-06-24 20:00:00 24.5 12 Nordeste 22 Nordeste 0 1011.1 0.3 76
2019-06-24 19:00:00 25.4 13 Norte 17 Norte 0 1010.8 -0.2 71
2019-06-24 18:00:00 27 12 Norte 18 Norte 0 1010.7 -0.3 62
2019-06-24 17:00:00 26.8 10 Norte 15 Norte 0 1010.8 -0.4 62
2019-06-24 16:00:00 25.8 8 Norte 13 Norte 0 1011 -0.4 68
2019-06-24 15:00:00 25.8 7 Nordeste 13 Nordeste 0 1011 -0.4 69
2019-06-24 14:00:00 24.6 7 Este 13 Este 0 1011.2 -0.1 74
2019-06-24 13:00:00 25.8 10 Este 15 Sudeste 0 1011.4 0.3 71
2019-06-24 12:00:00 23.7 9 Este 13 Este 0 1011.4 0.5 82
2019-06-24 11:00:00 24 9 Este 11 Nordeste 0 1011.3 0.8 77
2019-06-24 10:00:00 23.9 5 Nordeste 13 Norte 0 1011.1 0.6 79
2019-06-24 09:00:00 23.8 10 Norte 13 Norte 0 1010.9 0.5 75
2019-06-24 08:00:00 21.2 6 Noroeste 9 Oeste 0 1010.5 0.2 85
2019-06-24 07:00:00 20.6 5 Oeste 9 Oeste 0 1010.5 -0.1 82
2019-06-24 06:00:00 21.4 7 Oeste 9 Oeste 0 1010.4 -0.9 83
2019-06-24 05:00:00 21.4 7 Noroeste 11 Noroeste 0 1010.3 -1.6 80
2019-06-24 04:00:00 21.2 0 Calma 11 Sur 0 1010.6 -1.6 88
2019-06-24 03:00:00 22.6 8 Sudeste 15 Sur 0 1011.3 -0.8 86
2019-06-24 02:00:00 23 9 Sur 13 Sudeste 0 1011.9 0 83
2019-06-24 01:00:00 22.9 9 Sur 15 Sudeste 0 1012.2 0.7 86
2019-06-24 00:00:00 22.8 10 Sudeste 13 Sudeste 0 1012.1 1.3 86
2019-06-23 23:00:00 22.6 8 Sudeste 11 Sudeste 0 1011.9 1.3 88
2019-06-23 22:00:00 22.7 8 Sudeste 13 Sudeste 0 1011.5 1 88
2019-06-23 21:00:00 22.9 8 Sudeste 13 Sudeste 0 1010.8 0 87
2019-06-23 20:00:00 23.7 9 Este 11 Este 0 1010.6 -0.6 84
2019-06-23 19:00:00 24 5 Este 13 Norte 0 1010.5 -0.9 80
2019-06-23 18:00:00 24.7 8 Norte 17 Norte 0 1010.8 -0.9 79
2019-06-23 17:00:00 25.4 12 Norte 17 Norte 0 1011.2 -0.9 77
2019-06-23 16:00:00 24.9 11 Norte 18 Norte 0 1011.4 -1 77
2019-06-23 15:00:00 24.9 11 Norte 13 Norte 0 1011.7 -0.9 75
2019-06-23 14:00:00 24.4 8 Este 15 Este 0 1012.1 -0.4 78
2019-06-23 13:00:00 25.3 11 Este 15 Sudeste 0 1012.4 0 71
2019-06-23 12:00:00 24.4 11 Sudeste 17 Sudeste 0 1012.6 0.4 74
2019-06-23 11:00:00 24 12 Sudeste 18 Este 0 1012.5 0.7 73
2019-06-23 10:00:00 23.9 9 Sudeste 15 Sudeste 0 1012.4 0.8 75
2019-06-23 09:00:00 23.4 5 Este 8 Este 0 1012.2 0.6 69
2019-06-23 08:00:00 19.6 5 Oeste 8 Oeste 0 1011.8 0.1 76
2019-06-23 07:00:00 19.8 3 Noroeste 13 Sudoeste 0 1011.6 -0.4 75
2019-06-23 06:00:00 19.8 11 Sudoeste 13 Oeste 0 1011.6 -0.9 77
2019-06-23 05:00:00 19.3 7 Sudoeste 9 Oeste 0 1011.7 -1.7 80
2019-06-23 04:00:00 19.3 6 Oeste 9 Oeste 0 1012 -2 82
2019-06-23 03:00:00 19.8 7 Oeste 11 Oeste 0 1012.5 -1.7 80
2019-06-23 02:00:00 19.9 9 Oeste 11 Oeste 0 1013.4 -0.3 77
2019-06-23 01:00:00 20.3 5 Sudoeste 13 Oeste 0 1014 0.8 76
2019-06-23 00:00:00 21.5 10 Oeste 18 Noroeste 0 1014.2 1.3 71
2019-06-22 23:00:00 21.8 10 Oeste 17 Sudeste 0 1013.7 1 74
2019-06-22 22:00:00 22.5 11 Sur 21 Sur 0 1013.2 0.5 75
2019-06-22 21:00:00 23 13 Sur 21 Sur 0 1012.9 0.1 71
2019-06-22 20:00:00 23.1 4 Sudeste 28 Nordeste 0 1012.7 -0.8 72
2019-06-22 19:00:00 23 15 Nordeste 33 Nordeste 0 1012.7 -1.4 76
2019-06-22 18:00:00 23.1 24 Norte 33 Norte 0 1012.8 -1.7 76
2019-06-22 17:00:00 22.9 18 Nordeste 28 Norte 0 1013.5 -1.3 77
2019-06-22 16:00:00 22.9 13 Nordeste 22 Nordeste 0 1014.1 -1 77
2019-06-22 15:00:00 22.9 15 Nordeste 28 Nordeste 0 1014.5 -0.7 76
2019-06-22 14:00:00 23 18 Nordeste 24 Nordeste 0 1014.8 -0.4 76
2019-06-22 13:00:00 23.1 10 Nordeste 18 Norte 0 1015.1 0.1 73
2019-06-22 12:00:00 23.8 13 Nordeste 26 Nordeste 0 1015.2 0.1 70
2019-06-22 11:00:00 23.7 19 Nordeste 28 Norte 0 1015.2 0.4 70
2019-06-22 10:00:00 23.4 19 Norte 26 Norte 0 1015 0.5 69
2019-06-22 09:00:00 22.7 6 Norte 18 Nordeste 0 1015.1 1 63
2019-06-22 08:00:00 20.4 2 Nordeste 17 Norte 0 1014.8 0.9 69
2019-06-22 07:00:00 18.9 7 Sudoeste 11 Sudoeste 0 1014.5 0.3 72
2019-06-22 06:00:00 19.5 9 Oeste 17 Oeste 0 1014.1 -0.6 69
2019-06-22 05:00:00 19.1 7 Sudoeste 13 Sudoeste 0 1013.9 -1.1 71
2019-06-22 04:00:00 20.1 6 Noroeste 17 Norte 0 1014.2 -1.4 67
2019-06-22 03:00:00 20.2 8 Norte 15 Nordeste 0 1014.7 -1 71
2019-06-22 02:00:00 19.5 7 Sudoeste 21 Nordeste 0 1015 -0.4 75
2019-06-22 01:00:00 20.2 6 Oeste 15 Norte 0 1015.6 0.4 73
2019-06-22 00:00:00 20.7 9 Noroeste 24 Norte 0 1015.7 0.7 75
2019-06-21 23:00:00 21.2 21 Norte 32 Norte 0 1015.4 0.4 80
2019-06-21 22:00:00 21.5 28 Norte 33 Nordeste 0 1015.2 0.1 80
2019-06-21 21:00:00 21.6 26 Nordeste 35 Nordeste 0 1015 -0.2 81
2019-06-21 20:00:00 21.9 23 Norte 28 Nordeste 0 1015 -- 78
2019-06-21 19:00:00 22.4 22 Nordeste 28 Nordeste 0 1015.1 -0.3 76
2019-06-21 18:00:00 22.6 21 Nordeste -- -- -- 1015.2 -0.6 77
2019-06-21 17:00:00 -- -- -- -- -- -- -- -- --
2019-06-21 16:00:00 22.3 20 Nordeste 26 Nordeste 0 1015.4 -0.8 77
2019-06-21 15:00:00 22.4 15 Nordeste 24 Nordeste 0 1015.8 -0.3 78
2019-06-21 14:00:00 22.4 17 Nordeste 28 Norte 0 1016.1 0.2 78
2019-06-21 13:00:00 23.7 23 Norte 32 Norte 0 1016.2 0.2 70
2019-06-21 12:00:00 23.5 27 Norte 35 Nordeste 0 1016.1 0.4 72
2019-06-21 11:00:00 23.6 26 Nordeste 33 Nordeste 0 1015.9 0.5 71
2019-06-21 10:00:00 23.4 27 Norte 32 Norte 0 1016 0.8 71
2019-06-21 09:00:00 22 14 Norte 24 Norte 0 1015.7 0.7 74
2019-06-21 08:00:00 19.6 0 Calma 9 Oeste 0 1015.4 0.4 71
2019-06-21 07:00:00 19.3 8 Oeste 13 Sudoeste 0 1015.2 0 74
2019-06-21 06:00:00 20.2 8 Noroeste 18 Norte 0 1015 -0.6 75
2019-06-21 05:00:00 19.7 5 Oeste 13 Sudoeste 0 1015 -1.2 79
2019-06-21 04:00:00 20.2 7 Oeste 21 Norte 0 1015.2 -1.3 77
2019-06-21 03:00:00 21.2 15 Norte 24 Norte 0 1015.6 -1 77
2019-06-21 02:00:00 20.3 2 Sudoeste 22 Norte 0 1016.2 0.1 71
2019-06-21 01:00:00 21.5 12 Norte 24 Norte 0 1016.5 1 72
2019-06-21 00:00:00 21.4 9 Norte 35 Norte 0 1016.6 1.5 71
2019-06-20 23:00:00 21.6 24 Norte 35 Norte 0 1016.1 1.1 79
2019-06-20 22:00:00 21.8 29 Norte 41 Norte 0 1015.5 0.7 80
2019-06-20 21:00:00 22 33 Norte 41 Nordeste 0 1015.1 0.2 78
2019-06-20 20:00:00 22.3 30 Norte 41 Nordeste 0 1015 -0.1 78
2019-06-20 19:00:00 22.4 30 Nordeste 41 Norte 0 1014.8 -0.2 78
2019-06-20 18:00:00 22.5 33 Nordeste 42 Nordeste 0 1014.9 -0.5 78
2019-06-20 17:00:00 22.6 32 Nordeste 41 Nordeste 0 1015.1 -0.5 78
2019-06-20 16:00:00 22.7 32 Nordeste 42 Nordeste 0 1015 -0.7 76
2019-06-20 15:00:00 22.8 31 Nordeste 39 Nordeste 0 1015.4 -0.2 77
2019-06-20 14:00:00 22.8 28 Nordeste 41 Nordeste 0 1015.6 -0.1 77
2019-06-20 13:00:00 23.3 30 Nordeste 39 Nordeste 0 1015.7 0.1 75
2019-06-20 12:00:00 24 31 Nordeste 39 Nordeste 0 1015.6 0.3 72
2019-06-20 11:00:00 23.9 28 Norte 35 Nordeste 0 1015.7 0.8 68
2019-06-20 10:00:00 23.5 24 Norte 30 Nordeste 0 1015.6 0.9 69
2019-06-20 09:00:00 22.8 12 Nordeste 22 Norte 0 1015.3 0.7 63
2019-06-20 08:00:00 19.8 6 Sudoeste 17 Sudoeste 0 1014.9 0.2 69
2019-06-20 07:00:00 18.8 10 Sudoeste 15 Sudoeste 0 1014.7 -0.4 74
2019-06-20 06:00:00 18.4 8 Oeste 11 Oeste 0 1014.6 -0.8 80
2019-06-20 05:00:00 18.9 8 Oeste 13 Oeste 0 1014.7 -1.2 78
2019-06-20 04:00:00 19.3 11 Sudoeste 15 Sudoeste 0 1015.1 -1 75
2019-06-20 03:00:00 19.7 12 Sudoeste 17 Sudoeste 0 1015.4 -0.9 73
2019-06-20 02:00:00 19.7 11 Sudoeste 13 Sudoeste 0 1015.9 -0.1 74
2019-06-20 01:00:00 19.9 7 Oeste 13 Oeste 0 1016.1 0.5 77
2019-06-20 00:00:00 20.4 9 Sudoeste 13 Oeste 0 1016.3 1.1 78
2019-06-19 23:00:00 20.8 5 Oeste 13 Sudoeste 0 1016 1.2 78
2019-06-19 22:00:00 21.7 8 Sudoeste 24 Nordeste 0 1015.6 0.9 78
2019-06-19 21:00:00 22 17 Nordeste 24 Nordeste 0 1015.2 0.2 80
2019-06-19 20:00:00 22.3 17 Nordeste 28 Nordeste 0 1014.8 -0.1 80
2019-06-19 19:00:00 22.5 17 Nordeste 24 Nordeste 0 1014.7 -0.6 78
2019-06-19 18:00:00 22.7 16 Nordeste 28 Nordeste 0 1015 -0.5 77
2019-06-19 17:00:00 22.8 19 Nordeste 32 Nordeste 0 1014.9 -0.9 76
2019-06-19 16:00:00 22.7 21 Nordeste 33 Nordeste 0 1015.3 -0.6 76
2019-06-19 15:00:00 22.6 22 Nordeste 33 Nordeste 0 1015.5 -0.3 76
2019-06-19 14:00:00 22.8 26 Nordeste 32 Nordeste 0 1015.8 0.2 75
2019-06-19 13:00:00 23.3 26 Nordeste 32 Nordeste 0 1015.9 0.9 73
2019-06-19 12:00:00 24.3 26 Nordeste 32 Nordeste 0 1015.8 1.3 70
2019-06-19 11:00:00 23.3 6 Este 13 Nordeste 0 1015.6 1.6 71
2019-06-19 10:00:00 23.5 11 Nordeste 13 Nordeste 0 1015 1.1 67
2019-06-19 09:00:00 22.8 9 Norte 21 Oeste 0 1014.5 0.8 68
2019-06-19 08:00:00 20.3 10 Oeste 13 Oeste 0 1014 0.7 73
2019-06-19 07:00:00 19 11 Oeste 13 Oeste 0 1013.9 0.2 77
2019-06-19 06:00:00 19.1 5 Oeste 11 Oeste 0 1013.7 -0.2 75
2019-06-19 05:00:00 19.5 9 Sudoeste 13 Sudoeste 0 1013.3 -0.8 74
2019-06-19 04:00:00 20.1 10 Oeste 13 Sudoeste 0 1013.7 -0.8 73
2019-06-19 03:00:00 19.7 7 Oeste 11 Oeste 0 1013.9 -0.7 76
2019-06-19 02:00:00 19.8 6 Oeste 11 Oeste 0 1014.1 -0.4 75
2019-06-19 01:00:00 20.1 5 Sudoeste 17 Oeste 0 1014.5 0.2 78
2019-06-19 00:00:00 20.9 11 Sudoeste 15 Sudoeste 0 1014.6 0.6 76
2019-06-18 23:00:00 21.1 12 Sudoeste 15 Sudoeste 0 1014.5 0.6 78
2019-06-18 22:00:00 22.2 7 Este 17 Nordeste 0 1014.3 0.3 79
2019-06-18 21:00:00 22.6 3 Norte 11 Sudoeste 0 1014 0 77
2019-06-18 20:00:00 22.6 9 Este 13 Este 0 1013.9 0.1 81
2019-06-18 19:00:00 22.6 9 Nordeste 13 Este 0 1014 0.4 81
2019-06-18 18:00:00 22.9 8 Nordeste 15 Nordeste 0 1014 0.5 78
2019-06-18 17:00:00 23.1 10 Nordeste 18 Nordeste 0 1013.8 -0.3 80
2019-06-18 16:00:00 23.6 13 Nordeste 18 Nordeste 0 1013.6 -0.8 77
2019-06-18 15:00:00 23.7 14 Nordeste 18 Nordeste 0 1013.5 -0.9 79
2019-06-18 14:00:00 23.2 12 Nordeste 17 Nordeste 0 1014.1 0 79
2019-06-18 13:00:00 23.2 10 Nordeste 17 Nordeste 0 1014.4 0.7 81
2019-06-18 12:00:00 23.5 10 Nordeste 17 Nordeste 0 1014.4 1.3 79
2019-06-18 11:00:00 23.6 9 Nordeste 15 Nordeste 0 1014.1 1.5 74
2019-06-18 10:00:00 22.5 3 Este 9 Este 0 1013.7 1.5 76
2019-06-18 09:00:00 22.7 0 Calma 9 Oeste 0 1013.1 1.1 73
2019-06-18 08:00:00 21.2 3 Oeste 11 Oeste 0 1012.6 0.7 78
2019-06-18 07:00:00 20.6 7 Oeste 9 Oeste 0 1012.2 0.2 78
2019-06-18 06:00:00 20.9 8 Oeste 13 Oeste 0 1012 -0.4 74
2019-06-18 05:00:00 20.1 9 Oeste 11 Oeste 0 1011.9 -1.1 74
2019-06-18 04:00:00 20.1 8 Oeste 11 Oeste 0 1012 -1.4 74
2019-06-18 03:00:00 20.6 6 Oeste 11 Oeste 0 1012.4 -1.5 72
2019-06-18 02:00:00 20.8 8 Oeste 13 Oeste 0 1013 -0.6 76
2019-06-18 01:00:00 20.9 6 Oeste 11 Oeste 0 1013.4 -0.2 73
2019-06-18 00:00:00 21.3 3 Oeste 8 Sudoeste 0 1013.9 0.6 69
2019-06-17 23:00:00 21.5 5 Oeste 9 Oeste 0 1013.6 0.5 72
2019-06-17 22:00:00 22.5 5 Sur 11 Sudeste 0 1013.6 0.7 72
2019-06-17 21:00:00 22.9 6 Este 9 Este 0 1013.3 0.2 70
2019-06-17 20:00:00 23.2 0 Calma 9 Nordeste 0 1013.1 -0.2 69
2019-06-17 19:00:00 23.7 8 Nordeste 11 Nordeste 0 1012.9 -0.5 67
2019-06-17 18:00:00 24 8 Nordeste 13 Nordeste 0 1013.1 -0.6 67
2019-06-17 17:00:00 24.6 9 Nordeste 13 Nordeste 0 1013.3 -0.7 60
2019-06-17 16:00:00 24.9 9 Nordeste 13 Norte 0 1013.4 -0.8 59
2019-06-17 15:00:00 24.6 6 Nordeste 11 Nordeste 0 1013.7 -0.5 64
2019-06-17 14:00:00 24.2 6 Nordeste 11 Norte 0 1014 -0.2 64
2019-06-17 13:00:00 24.3 8 Este 13 Este 0 1014.2 0 67
2019-06-17 12:00:00 23.4 5 Nordeste 15 Norte 0 1014.2 0.3 70
2019-06-17 11:00:00 24 10 Norte 15 Norte 0 1014.2 0.7 70
2019-06-17 10:00:00 23.1 11 Norte 13 Norte 0 1014.2 0.9 72
2019-06-17 09:00:00 21.4 10 Norte 18 Noroeste 0 1013.9 0.3 75
2019-06-17 08:00:00 20.2 15 Noroeste 21 Norte 0 1013.5 -0.5 75
2019-06-17 07:00:00 18.9 12 Noroeste 21 Oeste 0 1013.3 -1.2 79
2019-06-17 06:00:00 18.1 11 Oeste 15 Oeste 0 1013.6 -1.4 79
2019-06-17 05:00:00 18.6 9 Oeste 15 Sudoeste 0 1014 -1.7 76
2019-06-17 04:00:00 18.6 10 Sudoeste 13 Sudoeste 0 1014.5 -1.8 75
2019-06-17 03:00:00 18.4 11 Sudoeste 15 Sudoeste 0 1015 -1.8 75
2019-06-17 02:00:00 18.9 9 Sudoeste 15 Oeste 0 1015.7 -0.6 74
2019-06-17 01:00:00 19.2 11 Sudoeste 13 Sudoeste 0 1016.3 0.4 76
2019-06-17 00:00:00 19.5 11 Sudoeste 13 Oeste 0 1016.8 1.3 75
2019-06-16 23:00:00 19.6 9 Sudoeste 13 Sudoeste 0 1016.3 1.1 75
2019-06-16 22:00:00 20.6 0 Calma 9 Sudoeste 0 1015.9 0.8 72
2019-06-16 21:00:00 21 4 Este 11 Este 0 1015.5 -0.1 71
2019-06-16 20:00:00 21.6 7 Este 11 Este 0 1015.2 -0.4 68
2019-06-16 19:00:00 21.4 6 Este 15 Sudeste 0 1015.1 -0.6 69
2019-06-16 18:00:00 21.8 10 Sudeste 15 Este 0 1015.6 -0.4 67
2019-06-16 17:00:00 22.9 11 Este 18 Este 0 1015.6 -0.7 63
2019-06-16 16:00:00 22.7 12 Sudeste 18 Sudeste 0 1015.7 -0.8 64
2019-06-16 15:00:00 23.1 12 Sudeste 17 Sudeste 0 1016 -0.6 61
2019-06-16 14:00:00 22.7 13 Sudeste 18 Este 0 1016.3 -0.2 62
2019-06-16 13:00:00 23 10 Este 15 Este 0 1016.5 0.5 61
2019-06-16 12:00:00 23 10 Este 13 Sudeste 0 1016.6 -- 62
2019-06-16 11:00:00 22.2 9 Este 13 Este 0 1016.5 1 62
2019-06-16 10:00:00 20.8 7 Este 9 Este -- 1016 1 65
2019-06-16 09:00:00 20.7 4 Este 5 Este 0 -- -- 66
2019-06-16 08:00:00 17.9 6 Oeste 13 Oeste 0 1015.5 0.7 72
2019-06-16 07:00:00 17.1 10 Oeste 15 Oeste 0 1015 0 76
2019-06-16 06:00:00 17.2 13 Oeste 15 Oeste 0 1015 -0.2 75
2019-06-16 05:00:00 17.1 11 Oeste 15 Oeste 0 1014.8 -1.2 74
2019-06-16 04:00:00 17.4 11 Oeste 15 Oeste 0 1015 -1.7 73
2019-06-16 03:00:00 17.9 12 Oeste 15 Oeste 0 1015.2 -1.5 71
2019-06-16 02:00:00 18.3 9 Oeste 13 Oeste 0 1016 -0.3 69
2019-06-16 01:00:00 18.7 7 Oeste 13 Oeste 0 1016.7 1 72
2019-06-16 00:00:00 19.4 8 Oeste 11 Oeste 0 1016.7 1.4 71
2019-06-15 23:00:00 19.9 8 Oeste 11 Oeste 0 1016.3 1.3 69
2019-06-15 22:00:00 20.1 5 Noroeste 11 Norte 0 1015.7 1 69
2019-06-15 21:00:00 20.2 6 Norte 11 Nordeste 0 1015.3 0.3 67
2019-06-15 20:00:00 20.7 5 Norte 26 Oeste 0 1015 -0.2 65
2019-06-15 19:00:00 20.8 0 Calma 11 Norte 0 1014.7 -0.9 64
2019-06-15 18:00:00 20.9 2 Noroeste 17 Oeste 0 1015 -1 63
2019-06-15 17:00:00 20.7 0 Calma 13 Nordeste 0 1015.2 -0.8 66
2019-06-15 16:00:00 20.5 3 Este 13 Este 0 1015.6 -0.9 67
2019-06-15 15:00:00 21 7 Sudeste 13 Sur 0 1016 -0.6 63
2019-06-15 14:00:00 20.7 7 Este 13 Este 0 1016 -0.2 66
2019-06-15 13:00:00 21.3 7 Este 15 Este 0 1016.5 0.7 64
2019-06-15 12:00:00 21.7 10 Este 13 Este 0 1016.6 0.9 58
2019-06-15 11:00:00 21.1 8 Nordeste 13 Este 0 1016.2 0.8 62
2019-06-15 10:00:00 20.2 5 Noroeste 13 Noroeste 0 1015.8 0.9 65
2019-06-15 09:00:00 19.4 7 Noroeste 11 Noroeste 0 1015.7 1 68
2019-06-15 08:00:00 19.4 5 Norte 13 Norte 0 1015.4 0.7 69
2019-06-15 07:00:00 19.1 10 Oeste 13 Oeste 0 1014.9 -0.3 66
2019-06-15 06:00:00 19.1 10 Oeste 15 Oeste 0 1014.7 -0.9 63
2019-06-15 05:00:00 18.4 9 Oeste 15 Oeste 0 1014.7 -1.4 69
2019-06-15 04:00:00 19.4 9 Noroeste 15 Oeste 0 1015.2 -1.2 65
2019-06-15 03:00:00 19.4 11 Oeste 15 Oeste 0 1015.6 -1 66
2019-06-15 02:00:00 19.5 13 Oeste 17 Oeste 0 1016.1 -0.3 64
2019-06-15 01:00:00 19.7 10 Oeste 17 Noroeste 0 1016.4 0.4 58
2019-06-15 00:00:00 19.2 13 Oeste 21 Oeste 0 1016.6 1.2 63
2019-06-14 23:00:00 19 13 Oeste 17 Oeste 0 1016.4 1.2 66
2019-06-14 22:00:00 19 9 Oeste 30 Oeste 0 1016 0.9 69
2019-06-14 21:00:00 20.3 5 Norte 11 Nordeste 0 1015.4 0.2 66
2019-06-14 20:00:00 20.8 8 Norte 13 Nordeste 0 1015.2 -0.2 65
2019-06-14 19:00:00 21.2 9 Nordeste 15 Norte 0 1015.1 -0.4 65
2019-06-14 18:00:00 21.4 9 Nordeste 17 Noroeste 0 1015.2 -0.4 65
2019-06-14 17:00:00 21.1 13 Oeste 24 Oeste 0 1015.4 -0.5 62
2019-06-14 16:00:00 20.9 6 Norte 18 Nordeste 0 1015.5 -0.5 66
2019-06-14 15:00:00 20.2 13 Nordeste 22 Nordeste 0 1015.6 -0.3 77
2019-06-14 14:00:00 21.5 7 Nordeste 15 Norte 0 1015.9 0.1 67
2019-06-14 13:00:00 22 11 Nordeste 22 Nordeste 0 1016 0.6 65
2019-06-14 12:00:00 22.2 13 Nordeste 18 Nordeste 0 1015.9 1.1 64
2019-06-14 11:00:00 22.4 10 Norte 17 Nordeste 0 1015.8 1.5 60
2019-06-14 10:00:00 21.3 11 Nordeste 15 Nordeste 0 1015.4 1.7 64
2019-06-14 09:00:00 21.5 7 Norte 13 Norte 0 1014.8 1.2 61
2019-06-14 08:00:00 19.7 9 Oeste 17 Oeste 0 1014.3 1 61
2019-06-14 07:00:00 19 10 Oeste 15 Oeste 0 1013.7 0.4 63
2019-06-14 06:00:00 19.2 10 Oeste 15 Noroeste 0 1013.6 -0.2 65
2019-06-14 05:00:00 19.2 12 Oeste 18 Oeste 0 1013.3 -1.1 65
2019-06-14 04:00:00 19.3 15 Oeste 21 Oeste 0 1013.3 -1.6 63
2019-06-14 03:00:00 19.2 9 Oeste 15 Oeste 0 1013.8 -1.2 66
2019-06-14 02:00:00 19 12 Oeste 15 Oeste 0 1014.4 -0.5 71
2019-06-14 01:00:00 19.3 7 Noroeste 17 Noroeste 0 1014.9 0.5 70
2019-06-14 00:00:00 19.5 7 Noroeste 21 Norte 0 1015 1 71
2019-06-13 23:00:00 20 15 Norte 26 Norte 0 1014.9 1.7 71
2019-06-13 22:00:00 20.2 18 Norte 26 Nordeste 0 1014.4 1.3 72
2019-06-13 21:00:00 20.3 18 Norte 26 Nordeste 0 1014 0.8 75
2019-06-13 20:00:00 20.6 23 Nordeste 30 Nordeste 0 1013.2 0.1 73
2019-06-13 19:00:00 20.8 16 Nordeste 22 Nordeste 0 1013.1 -0.2 70
2019-06-13 18:00:00 20.8 14 Nordeste 24 Nordeste 0 1013.2 -0.3 70
2019-06-13 17:00:00 21 18 Nordeste 24 Nordeste 0 1013.1 -0.6 69
2019-06-13 16:00:00 21.2 16 Nordeste 22 Nordeste 0 1013.3 -0.5 67
2019-06-13 15:00:00 21.4 15 Norte 18 Nordeste 0 1013.5 -0.3 63
2019-06-13 14:00:00 21.7 13 Norte 18 Norte 0 1013.7 0.4 62
2019-06-13 13:00:00 21.3 13 Norte 18 Norte 0 1013.8 0.9 64
2019-06-13 12:00:00 21.2 13 Norte 26 Norte 0 1013.8 1.7 63
2019-06-13 11:00:00 20.9 16 Norte 24 Norte 0 1013.3 1.5 66
2019-06-13 10:00:00 20.9 12 Norte 17 Norte 0 1012.9 1.2 67
2019-06-13 09:00:00 20.5 11 Norte 15 Norte 0 1012.1 0.7 67
2019-06-13 08:00:00 19.7 9 Noroeste 22 Norte 0 1011.8 0.4 63
2019-06-13 07:00:00 19.6 16 Norte 30 Norte 0 1011.7 0.3 68
2019-06-13 06:00:00 19.5 24 Norte 37 Nordeste 0 1011.4 -0.4 75
2019-06-13 05:00:00 19.3 30 Nordeste 41 Nordeste 0 1011.4 -0.8 80
2019-06-13 04:00:00 19.7 22 Norte 30 Nordeste 0 1011.4 -1.2 71
2019-06-13 03:00:00 19.9 21 Norte 32 Norte 0 1011.8 -1.2 68
2019-06-13 02:00:00 19.8 26 Norte 35 Norte 0 1012.2 -0.3 70
2019-06-13 01:00:00 20.1 28 Norte 41 Nordeste 0 1012.6 0.5 75
2019-06-13 00:00:00 20.1 28 Norte 39 Nordeste 0 1013 1.5 75
2019-06-12 23:00:00 20.2 28 Norte 37 Nordeste 0 1012.5 1.7 73
2019-06-12 22:00:00 20.1 27 Norte 37 Norte 0 1012.1 1.6 77
2019-06-12 21:00:00 20.2 32 Nordeste 41 Nordeste 0 1011.5 0.6 80
2019-06-12 20:00:00 20.2 34 Nordeste 42 Nordeste 0 1010.8 -0.8 82
2019-06-12 19:00:00 20.6 32 Nordeste 41 Nordeste 0 1010.5 -1.1 82
2019-06-12 18:00:00 21.5 29 Nordeste 39 Nordeste 0 1010.9 -1.2 71
2019-06-12 17:00:00 21.9 25 Norte 33 Nordeste 0 1011.6 -0.9 66
2019-06-12 16:00:00 21.9 26 Nordeste 33 Nordeste 0 1011.6 -0.9 69
2019-06-12 15:00:00 22.2 21 Norte 39 Norte 0 1012.1 -0.5 69
2019-06-12 14:00:00 21.8 25 Norte 32 Norte 0 1012.5 0.2 74
2019-06-12 13:00:00 22 24 Norte 33 Norte 0 1012.5 0.4 72
2019-06-12 12:00:00 22.1 23 Norte 33 Norte 0 1012.6 0.4 70
2019-06-12 11:00:00 20.3 25 Norte 54 Norte 0 1012.3 1 82
2019-06-12 10:00:00 20.8 23 Norte 39 Norte 0 1012.1 0.9 79
2019-06-12 09:00:00 19 28 Norte 39 Nordeste 0 1012.2 1.1 92
2019-06-12 08:00:00 19.4 29 Norte 42 Norte 0 1011.3 0.2 89
2019-06-12 07:00:00 19.3 36 Norte 46 Norte 0 1011.2 -0.1 92
2019-06-12 06:00:00 19.5 31 Norte 42 Norte 0 1011.1 -0.8 87
2019-06-12 05:00:00 19.2 27 Norte 48 Nordeste 0 1011.1 -1.6 90
2019-06-12 04:00:00 20.6 27 Norte 39 Norte 0 1011.3 -1.7 76
2019-06-12 03:00:00 20.2 25 Norte 48 Norte 0 1011.9 -1.4 79
2019-06-12 02:00:00 19.9 28 Norte 48 Nordeste 0 1012.7 -0.3 85
2019-06-12 01:00:00 20.1 33 Norte 45 Norte 0 1013 0.1 84
2019-06-12 00:00:00 20.3 36 Norte 50 Nordeste 0 1013.3 0.5 84
2019-06-11 23:00:00 20.8 36 Norte 54 Nordeste 0 1013 0.2 79
2019-06-11 22:00:00 20.3 31 Norte 54 Nordeste 0 1012.9 0.4 86
2019-06-11 21:00:00 20.8 37 Norte 52 Norte 0 1012.8 0.1 81
2019-06-11 20:00:00 20.1 44 Norte 59 Norte 0 1012.8 0 88
2019-06-11 19:00:00 21.3 43 Norte 55 Norte 0 1012.5 -0.7 80
2019-06-11 18:00:00 22.1 44 Norte 63 Norte 0 1012.7 -1.2 76
2019-06-11 17:00:00 22.9 49 Norte 63 Norte 0 1012.8 -1.7 70
2019-06-11 16:00:00 22.6 47 Norte 61 Norte 0 1013.2 -1 73
2019-06-11 15:00:00 22.9 42 Norte 54 Norte 0 1013.9 -0.5 73
2019-06-11 14:00:00 23.3 35 Norte 59 Nordeste 0 1014.5 -0.1 73
2019-06-11 13:00:00 22.5 51 Nordeste 63 Nordeste 0 1014.2 -0.5 74
2019-06-11 12:00:00 22.9 42 Nordeste 54 Nordeste 0 1014.4 -0.4 69
2019-06-11 11:00:00 22.6 31 Norte 48 Norte 0 1014.6 -0.3 72
2019-06-11 10:00:00 21.3 33 Nordeste 42 Nordeste 0 1014.7 -0.1 77
2019-06-11 09:00:00 21 22 Norte 41 Nordeste 0 1014.8 0 74
2019-06-11 08:00:00 20.4 24 Norte 37 Norte 0 1014.9 -0.1 70
2019-06-11 07:00:00 20.1 25 Norte 48 Nordeste 0 1014.8 -0.5 71
2019-06-11 06:00:00 19.6 21 Noroeste 45 Nordeste 0 1014.8 -1.1 66
2019-06-11 05:00:00 19.3 19 Norte 45 Norte 0 1015 -1.6 69
2019-06-11 04:00:00 19.9 37 Norte 48 Nordeste 0 1015.3 -1.8 77
2019-06-11 03:00:00 19.3 15 Noroeste 42 Norte 0 1015.9 -1.5 67
2019-06-11 02:00:00 19.7 33 Norte 45 Norte 0 1016.6 -0.7 74
2019-06-11 01:00:00 19.8 31 Norte 46 Norte 0 1017.1 0 73
2019-06-11 00:00:00 20 32 Norte 45 Norte 0 1017.4 0.8 77
2019-06-10 23:00:00 20.1 33 Norte 42 Nordeste 0 1017.3 0.8 76
2019-06-10 22:00:00 20.3 33 Norte 42 Norte 0 1017.1 0.6 78
2019-06-10 21:00:00 20.5 33 Norte 42 Norte 0 1016.6 0.2 78
2019-06-10 20:00:00 20.8 28 Norte 42 Norte 0 1016.5 -0.3 75
2019-06-10 19:00:00 20.9 32 Norte 46 Norte 0 1016.5 -0.7 75
2019-06-10 18:00:00 21.4 36 Norte 46 Norte 0 1016.4 -1 75
2019-06-10 17:00:00 22 31 Norte 42 Norte 0 1016.8 -1.1 71
2019-06-10 16:00:00 22.3 35 Norte 45 Norte 0 1017.2 -1.2 68
2019-06-10 15:00:00 23 33 Norte 42 Norte 0 1017.4 -1.2 68
2019-06-10 14:00:00 23.2 33 Norte 46 Norte 0 1017.9 -0.9 65
2019-06-10 13:00:00 22.9 30 Norte 39 Norte 0 1018.4 -0.5 65
2019-06-10 12:00:00 22.9 28 Norte 35 Norte 0 1018.6 -0.1 67
2019-06-10 11:00:00 22.4 26 Norte 35 Norte 0 1018.8 0.4 65
2019-06-10 10:00:00 21 21 Norte 32 Norte 0 1018.9 0.8 62
2019-06-10 09:00:00 20.3 19 Noroeste 30 Noroeste 0 1018.7 0.7 61
2019-06-10 08:00:00 20 19 Norte 33 Norte 0 1018.4 0.1 69
2019-06-10 07:00:00 19.9 20 Norte 30 Norte 0 1018.1 -0.5 69
2019-06-10 06:00:00 19.7 14 Noroeste 26 Noroeste 0 1018 -1.1 65
2019-06-10 05:00:00 19.7 18 Noroeste 28 Norte 0 1018.3 -1.3 66
2019-06-10 04:00:00 19.6 18 Noroeste 28 Noroeste 0 1018.6 -1.4 65
2019-06-10 03:00:00 19.2 17 Noroeste 30 Oeste 0 1019.1 -0.9 66
2019-06-10 02:00:00 19.2 17 Noroeste 28 Noroeste 0 1019.6 0 66
2019-06-10 01:00:00 19.4 17 Noroeste 32 Norte 0 1020 0.7 68
2019-06-10 00:00:00 19.6 18 Noroeste 35 Norte 0 1020 1 65
2019-06-09 23:00:00 19.8 29 Norte 39 Norte 0 1019.6 0.9 68
2019-06-09 22:00:00 20.1 26 Norte 39 Norte 0 1019.3 0.8 68
2019-06-09 21:00:00 20.1 32 Norte 42 Norte 0 1019 0.3 71
2019-06-09 20:00:00 20.3 36 Norte 45 Nordeste 0 1018.7 -0.4 70
2019-06-09 19:00:00 20.5 33 Norte 42 Norte 0 1018.5 -0.6 71
2019-06-09 18:00:00 20.9 32 Norte 41 Norte 0 1018.7 -0.6 71
2019-06-09 17:00:00 21.3 29 Norte 42 Norte 0 1019.1 -0.3 72
2019-06-09 16:00:00 21.8 32 Norte 41 Norte 0 1019.1 -1 71
2019-06-09 15:00:00 21.7 26 Norte 46 Nordeste 0 1019.3 -0.8 67
2019-06-09 14:00:00 22.9 32 Nordeste 41 Nordeste 0 1019.4 -0.2 58
2019-06-09 13:00:00 23.5 17 Norte 35 Nordeste 0 1020.1 0.7 54
2019-06-09 12:00:00 22.1 28 Norte 37 Nordeste 0 1020.1 0.9 58
2019-06-09 11:00:00 20.9 30 Nordeste 35 Norte 0 1019.6 0.8 63
2019-06-09 10:00:00 20.6 25 Norte 35 Norte 0 1019.4 1 64
2019-06-09 09:00:00 20.1 27 Norte 35 Norte 0 1019.2 1.1 69
2019-06-09 08:00:00 19.9 23 Norte 33 Norte 0 1018.8 0.7 69
2019-06-09 07:00:00 19.4 24 Norte 30 Norte 0 1018.4 0 73
2019-06-09 06:00:00 19.2 18 Norte 26 Norte 0 1018.1 -0.6 71
2019-06-09 05:00:00 18.8 14 Noroeste 26 Noroeste 0 1018.1 -1 63
2019-06-09 04:00:00 19.3 19 Noroeste 28 Noroeste 0 1018.4 -0.9 64
2019-06-09 03:00:00 19 21 Noroeste 33 Noroeste 0 1018.7 -0.9 63
2019-06-09 02:00:00 18.8 19 Noroeste 32 Noroeste 0 1019.1 -0.1 63
2019-06-09 01:00:00 18.9 19 Noroeste 28 Noroeste 0 1019.3 0.7 63
2019-06-09 00:00:00 19.5 22 Norte 35 Norte 0 1019.6 1.4 65
2019-06-08 23:00:00 19.5 24 Norte 37 Norte 0 1019.2 1.4 66
2019-06-08 22:00:00 19.7 18 Norte -- -- -- 1018.6 1.1 62
2019-06-08 21:00:00 20.2 26 Norte 37 Norte 0 1018.2 0.4 64
2019-06-08 20:00:00 20.4 29 Norte 35 Norte 0 1017.8 0.1 71
2019-06-08 19:00:00 20.5 24 Norte 32 Norte 0 1017.5 -0.1 70
2019-06-08 18:00:00 20.5 23 Norte 32 Norte 0 1017.8 -0.2 73
2019-06-08 17:00:00 20.6 26 Norte 37 Nordeste 0 1017.7 -0.4 72
2019-06-08 16:00:00 20.6 31 Norte 37 Nordeste 0 1017.6 -0.6 73
2019-06-08 15:00:00 20.8 24 Norte 33 Norte 0 1018 -0.2 70
2019-06-08 14:00:00 20.4 25 Norte 30 Norte 0 1018.1 0.4 74
2019-06-08 13:00:00 19.9 12 Norte 30 Norte 0 1018.2 0.9 78
2019-06-08 12:00:00 20.2 19 Norte 30 Nordeste 0 1018.2 1.3 79
2019-06-08 11:00:00 20 23 Nordeste 33 Nordeste 0 1017.7 0.9 81
2019-06-08 10:00:00 18.5 14 Noroeste 33 Noroeste 2.8 1017.3 1.4 91
2019-06-08 09:00:00 19 17 Noroeste 28 Noroeste 0.7 1016.9 1.3 85
2019-06-08 08:00:00 19.1 14 Noroeste 33 Norte 0 1016.8 1.3 80
2019-06-08 07:00:00 19.9 27 Norte 33 Norte 0 1015.9 0.6 87
2019-06-08 06:00:00 19.4 14 Norte 26 Norte 3.1 1015.6 0.3 94
2019-06-08 05:00:00 18.7 14 Noroeste 32 Norte 1.1 1015.5 -0.3 94
2019-06-08 04:00:00 19.4 17 Noroeste 35 Nordeste 0.3 1015.3 -0.9 91
2019-06-08 03:00:00 20.4 21 Norte 32 Nordeste 0.3 1015.3 -0.9 89
2019-06-08 02:00:00 20.8 19 Norte 28 Nordeste 0 1015.8 -0.1 85
2019-06-08 01:00:00 21.1 12 Norte 24 Norte 0 1016.2 1 78
2019-06-08 00:00:00 21 21 Norte 28 Norte 0 1016.2 1.4 85
2019-06-07 23:00:00 20.9 23 Norte 32 Norte 0 1015.9 1.1 84
2019-06-07 22:00:00 21.2 25 Norte 33 Norte 0 1015.2 0.7 84
2019-06-07 21:00:00 21.3 19 Norte 28 Norte 0 1014.8 -0.2 81
2019-06-07 20:00:00 21.9 15 Norte 26 Oeste 0 1014.8 -0.1 75
2019-06-07 19:00:00 22.2 13 Norte 22 Norte 0 1014.5 -0.6 68
2019-06-07 18:00:00 23 9 Norte 18 Norte 0 1015 -0.4 66
2019-06-07 17:00:00 23.5 11 Norte 18 Noroeste 0 1014.9 -0.7 66
2019-06-07 16:00:00 23.8 13 Norte 18 Norte 0 1015.1 -0.6 60
2019-06-07 15:00:00 23.3 10 Norte 15 Norte 0 1015.4 -0.1 62
2019-06-07 14:00:00 23.1 10 Norte 18 Norte 0 1015.6 0.2 64
2019-06-07 13:00:00 22.7 17 Nordeste 26 Nordeste 0 1015.7 0.8 66
2019-06-07 12:00:00 22.2 15 Nordeste 30 Nordeste 0 1015.5 1 68
2019-06-07 11:00:00 22.3 25 Nordeste 32 Nordeste 0 1015.4 1.2 67
2019-06-07 10:00:00 21.9 26 Norte 33 Norte 0 1014.9 1.1 66
2019-06-07 09:00:00 21.2 28 Norte 39 Norte 0 1014.5 1 67
2019-06-07 08:00:00 20 31 Norte 42 Norte 0 1014.2 0.8 72
2019-06-07 07:00:00 19.3 10 Noroeste 26 Norte 0 1013.8 0.3 62
2019-06-07 06:00:00 19.1 14 Noroeste 22 Noroeste 0 1013.5 -0.6 62
2019-06-07 05:00:00 18.4 9 Oeste 17 Norte 0 1013.4 -1.4 66
2019-06-07 04:00:00 18.6 5 Noroeste 30 Noroeste 0 1013.5 -1.8 66
2019-06-07 03:00:00 19.1 12 Noroeste 37 Norte 0 1014.1 -1.1 70
2019-06-07 02:00:00 19.6 17 Norte 30 Norte 0 1014.8 -0.1 72
2019-06-07 01:00:00 19.8 18 Norte 28 Norte 0 1015.3 0.8 71
2019-06-07 00:00:00 19.6 11 Noroeste 22 Noroeste 0 1015.2 0.9 63
2019-06-06 23:00:00 20 26 Norte 39 Nordeste 0 1014.9 0.7 72
2019-06-06 22:00:00 20.1 30 Norte 39 Nordeste 0 1014.5 0.4 71
2019-06-06 21:00:00 20.1 25 Norte 35 Norte 0 1014.3 0.1 69
2019-06-06 20:00:00 20.4 29 Norte 37 Nordeste 0 1014.2 -0.1 68
2019-06-06 19:00:00 20.8 25 Norte 32 Nordeste 0 1014.1 -0.2 68
2019-06-06 18:00:00 21 27 Norte 35 Nordeste 0 1014.2 -0.5 67
2019-06-06 17:00:00 21.6 23 Norte 32 Norte 0 1014.3 -0.5 63
2019-06-06 16:00:00 22 24 Norte 30 Norte 0 1014.3 -0.8 62
2019-06-06 15:00:00 22.6 18 Norte 32 Norte 0 1014.7 -0.3 61
2019-06-06 14:00:00 22.3 21 Norte 26 Norte 0 1014.8 0 58
2019-06-06 13:00:00 20.8 18 Norte 26 Norte 0 1015.1 0.5 65
2019-06-06 12:00:00 20.4 13 Norte 30 Nordeste 0 1015 0.8 64
2019-06-06 11:00:00 19.6 22 Norte 41 Norte 0 1014.8 1.1 72
2019-06-06 10:00:00 20.7 28 Norte 33 Norte 0 1014.6 0.9 65
2019-06-06 09:00:00 20 26 Norte 35 Nordeste 0 1014.2 0.6 68
2019-06-06 08:00:00 19.8 24 Norte 35 Norte 0 1013.7 -0.1 67
2019-06-06 07:00:00 19.7 19 Norte 28 Norte 0 1013.7 -0.2 67
2019-06-06 06:00:00 19.7 21 Norte 33 Norte 0 1013.6 -0.8 70
2019-06-06 05:00:00 19.8 24 Norte 33 Norte 0 1013.8 -1 72
2019-06-06 04:00:00 19.9 26 Norte 33 Norte 0 1013.9 -1.5 72
2019-06-06 03:00:00 20 24 Norte 35 Norte 0 1014.4 -1.1 73
2019-06-06 02:00:00 20.3 27 Norte 39 Norte 0 1014.8 -0.5 74
2019-06-06 01:00:00 20.2 22 Norte 33 Norte 0 1015.4 0.4 73
2019-06-06 00:00:00 20.3 23 Norte 30 Norte 0 1015.5 1 73
2019-06-05 23:00:00 20.4 25 Norte 32 Norte 0 1015.3 0.9 71
2019-06-05 22:00:00 20.6 25 Norte 33 Norte 0 1015 0.6 74
2019-06-05 21:00:00 20.8 23 Norte 32 Norte 0 1014.5 -0.1 76
2019-06-05 20:00:00 20.9 28 Norte 33 Norte 0 1014.4 -0.4 74
2019-06-05 19:00:00 21.5 23 Norte 30 Norte 0 1014.4 -0.8 75
2019-06-05 18:00:00 21.6 24 Nordeste 30 Nordeste 0 1014.6 -0.7 75
2019-06-05 17:00:00 22.1 18 Norte 26 Norte 0 1014.8 -0.8 70
2019-06-05 16:00:00 21.6 21 Norte 28 Norte 0 1015.2 -0.5 78
2019-06-05 15:00:00 21.5 20 Norte 30 Norte 0 1015.3 -0.3 79
2019-06-05 14:00:00 21.5 18 Norte 26 Norte 0 1015.6 0.3 81
2019-06-05 13:00:00 21.8 18 Norte 24 Norte 0 1015.7 0.6 78
2019-06-05 12:00:00 21.9 21 Norte 30 Norte 0 1015.6 0.8 77
2019-06-05 11:00:00 22.1 24 Nordeste 32 Nordeste 0 1015.3 0.7 78
2019-06-05 10:00:00 22.9 21 Norte 30 Norte 0 1015.1 0.8 71
2019-06-05 09:00:00 22.7 22 Norte 28 Norte 0 1014.8 0.6 71
2019-06-05 08:00:00 21.2 13 Norte 26 Noroeste 0 1014.6 0.1 73
2019-06-05 07:00:00 20.6 14 Noroeste 30 Norte 0 1014.3 -0.7 73
2019-06-05 06:00:00 20.6 12 Norte 24 Norte 0 1014.2 -1.1 76
2019-06-05 05:00:00 20.9 19 Norte 28 Norte 0 1014.5 -1.3 80
2019-06-05 04:00:00 21 14 Noroeste 30 Norte 0 1015 -1.2 72
2019-06-05 03:00:00 21.2 19 Norte 39 Norte 0 1015.3 -1 74
2019-06-05 02:00:00 21.4 28 Norte 37 Norte 0 1015.8 -0.2 75
2019-06-05 01:00:00 21.2 14 Norte 32 Norte 0 1016.2 0.6 75
2019-06-05 00:00:00 21.1 30 Norte 45 Nordeste 0 1016.3 1.1 77
2019-06-04 23:00:00 21.1 29 Norte 37 Norte 0 1016 1.1 77
2019-06-04 22:00:00 21.1 30 Nordeste 39 Norte 0 1015.6 0.7 78
2019-06-04 21:00:00 21.3 28 Nordeste 39 Norte 0 1015.2 0.3 78
2019-06-04 20:00:00 21.5 30 Norte 41 Norte 0 1014.9 -0.2 78
2019-06-04 19:00:00 21.5 29 Nordeste 48 Nordeste 0 1014.9 -0.5 81
2019-06-04 18:00:00 22.3 36 Nordeste 46 Nordeste 0 1014.9 -0.8 76
2019-06-04 17:00:00 22.6 28 Nordeste 37 Nordeste 0 1015.1 -0.9 75
2019-06-04 16:00:00 23.2 25 Norte 33 Nordeste 0 1015.4 -0.4 71
2019-06-04 15:00:00 23.5 24 Norte 39 Norte 0 1015.7 0 71
2019-06-04 14:00:00 23.4 29 Norte 41 Nordeste 0 1016 1 72
2019-06-04 13:00:00 23.1 32 Norte 42 Nordeste 0 1015.8 1.1 74
2019-06-04 12:00:00 23 28 Norte 41 Norte 0 1015.7 1.6 75
2019-06-04 11:00:00 22.6 32 Norte 46 Norte 0 1015 1.3 77
2019-06-04 10:00:00 22.3 31 Norte 39 Norte 0 1014.7 1.5 76
2019-06-04 09:00:00 21.6 27 Norte 37 Norte 0 1014.1 1.1 82
2019-06-04 08:00:00 20.9 14 Norte 26 Norte 0 1013.7 0.7 75
2019-06-04 07:00:00 20.1 8 Norte 26 Norte 0 1013.2 0.2 62
2019-06-04 06:00:00 22.1 7 Noroeste 22 Norte 0 1013 -0.7 39
2019-06-04 05:00:00 21.9 9 Norte 21 Norte 0 1013 -1.2 47
2019-06-04 04:00:00 21.8 9 Norte 24 Noroeste 0 1013 -1.8 49
2019-06-04 03:00:00 21.1 15 Norte 24 Norte 0 1013.7 -1.4 70
2019-06-04 02:00:00 21.1 18 Noroeste 26 Norte 0 1014.2 -0.6 75
2019-06-04 01:00:00 21.4 10 Noroeste 26 Noroeste 0 1014.8 0.6 72
2019-06-04 00:00:00 21.5 13 Noroeste 26 Norte 0 1015.1 1.5 71
2019-06-03 23:00:00 21.4 15 Norte 26 Norte 0 1014.8 1.4 78
2019-06-03 22:00:00 21.4 14 Norte 30 Norte 0 1014.2 1.4 80
2019-06-03 21:00:00 21.5 25 Norte 33 Norte 0 1013.6 0.5 84
2019-06-03 20:00:00 22.1 15 Noroeste 33 Norte 0 1013.4 0.2 84
2019-06-03 19:00:00 22.7 17 Norte 32 Norte 0 1012.8 -0.7 82
2019-06-03 18:00:00 23.5 21 Norte 32 Norte 0 1013.1 -0.4 77
2019-06-03 17:00:00 23.9 20 Norte 33 Norte 0 1013.2 -0.5 76
2019-06-03 16:00:00 24.4 17 Noroeste 30 Noroeste 0 1013.5 0 72
2019-06-03 15:00:00 24.6 19 Norte 33 Noroeste 0 1013.5 0.3 71
2019-06-03 14:00:00 24.4 22 Noroeste 39 Norte 0 1013.7 1.1 67
2019-06-03 13:00:00 25.6 19 Norte 32 Norte 0 1013.5 0.8 59
2019-06-03 12:00:00 24.3 19 Norte 37 Norte 0 1013.2 0.9 66
2019-06-03 11:00:00 24.9 17 Norte 30 Norte 0 1012.6 1.1 62
2019-06-03 10:00:00 25.2 19 Norte 28 Norte 0 1012.7 1.2 51
2019-06-03 09:00:00 22.7 19 Norte 28 Norte 0 1012.3 0.9 67
2019-06-03 08:00:00 22.1 16 Norte 22 Norte 0 1011.5 -0.2 62
2019-06-03 07:00:00 22.1 15 Norte 28 Oeste 0 1011.5 -0.3 68
2019-06-03 06:00:00 25.2 15 Noroeste 22 Noroeste 0 1011.4 -1.2 26
2019-06-03 05:00:00 25 17 Norte 22 Norte 0 1011.7 -1.6 26
2019-06-03 04:00:00 23.7 15 Norte 24 Norte 0 1011.8 -1.6 35
2019-06-03 03:00:00 21.6 17 Noroeste 30 Norte 0 1012.6 -0.2 67
2019-06-03 02:00:00 21 24 Norte 33 Norte 0 1013.3 1 85
2019-06-03 01:00:00 21 18 Norte 28 Norte 0 1013.4 1.7 87
2019-06-03 00:00:00 21.1 19 Norte 26 Norte 0 1012.8 1.7 85
2019-06-02 23:00:00 21.4 15 Norte 21 Norte 0 1012.3 1.7 83
2019-06-02 22:00:00 21.5 11 Norte 21 Norte 0 1011.7 1.6 84
2019-06-02 21:00:00 21.3 15 Norte 33 Norte 0 1011.1 1.1 87
2019-06-02 20:00:00 21.6 24 Norte 33 Nordeste 0 1010.6 0.5 85
2019-06-02 19:00:00 22 24 Norte 35 Nordeste 0 1010.1 -0.5 83
2019-06-02 18:00:00 22.6 27 Norte 33 Nordeste 0 1010 -0.6 80
2019-06-02 17:00:00 23.5 22 Norte 28 Norte 0 1010.1 -0.8 76
2019-06-02 16:00:00 23.7 22 Norte 30 Norte 0 1010.6 -0.1 74
2019-06-02 15:00:00 23.5 23 Norte 32 Nordeste 0 1010.6 -0.2 75
2019-06-02 14:00:00 23.8 22 Norte 33 Nordeste 0 1010.9 0.2 74
2019-06-02 13:00:00 23.6 24 Norte 32 Norte 0 1010.7 0.8 74
2019-06-02 12:00:00 23.9 21 Norte 26 Norte 0 1010.8 1.2 72
2019-06-02 11:00:00 22.9 19 Norte 28 Norte 0 1010.7 1.5 75
2019-06-02 10:00:00 22.2 22 Norte 28 Nordeste 0 1009.9 1 78
2019-06-02 09:00:00 21.2 15 Norte 21 Norte 0 1009.6 0.6 83
2019-06-02 08:00:00 19.3 13 Norte 18 Norte 0 1009.2 0.4 87
2019-06-02 07:00:00 18.6 2 Oeste 13 Noroeste 0 1008.9 -0.3 89
2019-06-02 06:00:00 18.9 8 Noroeste 15 Noroeste 0 1009 -0.7 87
2019-06-02 05:00:00 19.1 7 Noroeste 17 Noroeste 0 1008.8 -1.5 85
2019-06-02 04:00:00 19.4 11 Noroeste 17 Noroeste 0 1009.2 -1.2 86
2019-06-02 03:00:00 19.8 15 Norte 24 Norte 0 1009.7 -0.7 84
2019-06-02 02:00:00 19.9 12 Noroeste 28 Norte 0 1010.3 0.9 84
2019-06-02 01:00:00 20.1 18 Norte 32 Norte 0 1010.4 1.5 86
2019-06-02 00:00:00 20.2 24 Norte 39 Nordeste 0 1010.4 1.9 87
2019-06-01 23:00:00 20.3 33 Norte 45 Norte 0 1009.4 1.3 86
2019-06-01 22:00:00 20.6 13 Norte 45 Nordeste 0 1008.9 0.9 83
2019-06-01 21:00:00 20.6 33 Nordeste 46 Norte 0 1008.5 0.1 85
2019-06-01 20:00:00 20.9 32 Nordeste 42 Nordeste 0 1008.1 -- 82
2019-06-01 19:00:00 21.2 31 Nordeste 46 Nordeste 0 1008 -- 79
2019-06-01 18:00:00 21.6 30 Nordeste 39 Norte 0 1008.4 -- 78
2019-06-01 17:00:00 -- -- -- -- -- -- -- -- --
2019-06-01 16:00:00 -- -- -- -- -- -- -- -- --
2019-06-01 15:00:00 -- -- -- -- -- -- -- -- --
2019-06-01 14:00:00 -- -- -- -- -- -- -- -- --
2019-06-01 13:00:00 22.6 23 Nordeste 33 Nordeste 0 1010.7 1 73
2019-06-01 12:00:00 22.1 23 Nordeste 37 Nordeste 0 1010.5 1.6 77
2019-06-01 11:00:00 21.7 30 Nordeste 42 Nordeste 0 1010.3 2.3 78
2019-06-01 10:00:00 21.7 31 Norte 41 Norte 0 1009.7 1.5 78
2019-06-01 09:00:00 21 17 Sudeste 30 Sur 0 1008.9 0.2 78
2019-06-01 08:00:00 19.3 11 Sudoeste 32 Nordeste 0 1008 -1.2 81
2019-06-01 07:00:00 19.1 13 Norte 33 Norte 0 1008.2 -1.2 83
2019-06-01 06:00:00 19.1 15 Norte 32 Norte 0 1008.7 -0.7 82
2019-06-01 05:00:00 19.3 18 Norte 35 Norte 0 1009.2 -0.7 83
2019-06-01 04:00:00 19.4 8 Norte 26 Nordeste 0 1009.4 -0.7 81
2019-06-01 03:00:00 19.1 11 Noroeste 30 Nordeste 0 1009.4 -0.6 82
2019-06-01 02:00:00 19.2 9 Oeste 37 Norte 0 1009.9 0 81
2019-06-01 01:00:00 19.7 16 Norte 35 Nordeste 0 1010.1 0.8 81
2019-06-01 00:00:00 19.9 9 Norte 37 Norte 0 1010 1.1 81
2019-05-31 23:00:00 20 19 Norte 41 Nordeste 0 1009.9 1.1 81
2019-05-31 22:00:00 20.2 17 Norte 45 Nordeste 0 1009.3 0.3 81
2019-05-31 21:00:00 20.4 29 Nordeste 46 Norte 0 1008.9 -0.4 81
2019-05-31 20:00:00 20.8 30 Nordeste 48 Norte 0 1008.8 -1 79
2019-05-31 19:00:00 21.3 33 Norte 52 Nordeste 0 1009 -1.3 77
2019-05-31 18:00:00 21.9 33 Norte 48 Nordeste 0 1009.3 -0.8 76
2019-05-31 17:00:00 22.1 33 Nordeste 46 Nordeste 0 1009.8 -0.8 74
2019-05-31 16:00:00 21.9 28 Nordeste 42 Nordeste 0 1010.3 -0.6 75
2019-05-31 15:00:00 22.6 28 Nordeste 39 Nordeste 0 1010.1 -0.8 73
2019-05-31 14:00:00 22.7 25 Nordeste 41 Nordeste 0 1010.6 -0.2 69
2019-05-31 13:00:00 22.4 24 Nordeste 50 Norte 0 1010.9 0.2 70
2019-05-31 12:00:00 22.2 23 Nordeste 41 Nordeste 0 1010.9 0.5 69
2019-05-31 11:00:00 21.5 26 Nordeste 42 Nordeste 0 1010.8 0.8 73
2019-05-31 10:00:00 21.8 23 Norte 35 Nordeste 0 1010.7 0.9 71
2019-05-31 09:00:00 20.7 3 Este 13 Nordeste 0 1010.4 0.8 70
2019-05-31 08:00:00 18 6 Oeste 17 Sudoeste 0 1010 0.1 78
2019-05-31 07:00:00 17.9 6 Oeste 17 Nordeste 0 1009.8 -0.2 80
2019-05-31 06:00:00 18.2 7 Oeste 21 Nordeste 0 1009.6 -1.1 78
2019-05-31 05:00:00 18.5 10 Nordeste 21 Nordeste 0 1009.9 -1.4 78
2019-05-31 04:00:00 17.8 4 Sudoeste 17 Sudoeste 0 1010 -1.7 79
2019-05-31 03:00:00 18.4 7 Norte 17 Norte 0 1010.7 -1.1 78
2019-05-31 02:00:00 18.5 12 Norte 30 Norte 0 1011.3 -0.6 79
2019-05-31 01:00:00 18.6 6 Oeste 24 Nordeste 0 1011.7 0 78
2019-05-31 00:00:00 18.9 8 Oeste 26 Este 0 1011.8 0.4 77
2019-05-30 23:00:00 19.5 11 Norte 39 Norte 0 1011.9 0.8 75
2019-05-30 22:00:00 19.8 24 Norte 42 Nordeste 0 1011.7 0.6 77
2019-05-30 21:00:00 20.1 24 Norte 41 Nordeste 0 1011.4 0.2 76
2019-05-30 20:00:00 20.4 30 Nordeste 41 Nordeste 0 1011.1 -0.5 76
2019-05-30 19:00:00 20.7 27 Nordeste 39 Nordeste 0 1011.1 -0.8 74
2019-05-30 18:00:00 21.3 26 Nordeste 37 Nordeste 0 1011.2 -0.8 72
2019-05-30 17:00:00 21.8 19 Nordeste 26 Nordeste 0 1011.6 -0.7 71
2019-05-30 16:00:00 22.5 20 Nordeste 28 Nordeste 0 1011.9 -0.5 67
2019-05-30 15:00:00 22.5 20 Norte 32 Nordeste 0 1012 -0.5 66
2019-05-30 14:00:00 22.1 23 Nordeste 32 Nordeste 0 1012.3 0 66
2019-05-30 13:00:00 22.7 21 Norte 26 Nordeste 0 1012.4 0 64
2019-05-30 12:00:00 21.9 20 Nordeste 28 Nordeste 0 1012.5 0.4 67
2019-05-30 11:00:00 21.3 20 Nordeste 28 Nordeste 0 1012.3 0.5 69
2019-05-30 10:00:00 20.9 15 Nordeste 26 Norte 0 1012.4 1 70
2019-05-30 09:00:00 19.2 11 Norte 18 Noroeste 0 1012.1 1.1 72
2019-05-30 08:00:00 18.1 6 Norte 18 Norte 0 1011.8 0.7 76
2019-05-30 07:00:00 18.1 12 Norte 21 Norte 0 1011.4 0 76
2019-05-30 06:00:00 18 9 Noroeste 17 Norte 0 1011 -0.8 76
2019-05-30 05:00:00 18.5 12 Nordeste 28 Noroeste 0 1011.1 -1.5 75
2019-05-30 04:00:00 18.5 12 Norte 30 Noroeste 0 1011.4 -1.7 75
2019-05-30 03:00:00 18.7 9 Norte 28 Norte 0 1011.8 -1.6 74
2019-05-30 02:00:00 18.8 6 Norte 26 Noroeste 0 1012.6 -0.5 73
2019-05-30 01:00:00 19.1 13 Norte 33 Norte 0 1013.1 0.5 73
2019-05-30 00:00:00 19.4 24 Norte 42 Nordeste 0 1013.4 1.4 75
2019-05-29 23:00:00 19.5 28 Norte 46 Norte 0 1013.1 1.3 74
2019-05-29 22:00:00 19.7 35 Norte 50 Nordeste 0 1012.6 1 76
2019-05-29 21:00:00 20 30 Norte 45 Norte 0 1012 0.3 76
2019-05-29 20:00:00 20.4 31 Nordeste 41 Norte 0 1011.8 -0.3 75
2019-05-29 19:00:00 20.8 28 Nordeste 39 Nordeste 0 1011.6 -0.5 74
2019-05-29 18:00:00 21.3 25 Nordeste 37 Nordeste 0 1011.7 -0.8 71
2019-05-29 17:00:00 21.6 24 Nordeste 32 Nordeste 0 1012.1 -0.9 67
2019-05-29 16:00:00 22.4 22 Norte 32 Norte 0 1012.1 -1.3 65
2019-05-29 15:00:00 22.2 25 Nordeste 32 Nordeste 0 1012.5 -0.9 64
2019-05-29 14:00:00 22.1 24 Nordeste 33 Nordeste 0 1013 -0.4 64
2019-05-29 13:00:00 21.8 26 Nordeste 35 Nordeste 0 1013.4 0.1 67
2019-05-29 12:00:00 21.4 24 Nordeste 42 Nordeste 0 1013.4 0.5 68
2019-05-29 11:00:00 21 28 Nordeste 37 Nordeste 0 1013.4 0.8 70
2019-05-29 10:00:00 21.3 25 Norte 32 Norte 0 1013.3 1.1 71
2019-05-29 09:00:00 19.5 13 Noroeste 22 Noroeste 0 1012.9 0.7 73
2019-05-29 08:00:00 18.9 9 Norte 18 Noroeste 0 1012.6 0.6 75
2019-05-29 07:00:00 18.8 10 Noroeste 26 Norte 0 1012.2 -0.2 75
2019-05-29 06:00:00 19 14 Norte 28 Norte 0 1012.2 -0.6 74
2019-05-29 05:00:00 19 21 Norte 32 Norte 0 1012 -1.3 74
2019-05-29 04:00:00 19.6 23 Norte 32 Norte 0 1012.4 -1.3 78
2019-05-29 03:00:00 20.1 17 Norte 30 Norte 0 1012.8 -1 71
2019-05-29 02:00:00 19.9 20 Norte 32 Norte 0 1013.3 -0.1 75
2019-05-29 01:00:00 19.7 18 Norte 26 Norte 0 1013.7 0.8 81
2019-05-29 00:00:00 18.8 17 Noroeste 35 Nordeste 0 1013.8 1.3 90
2019-05-28 23:00:00 19.3 31 Nordeste 39 Norte 0 1013.4 1.3 91
2019-05-28 22:00:00 20.1 28 Norte 39 Norte 0 1012.9 1.1 87
2019-05-28 21:00:00 20.4 28 Norte 35 Nordeste 0 1012.5 0.5 76
2019-05-28 20:00:00 20.9 24 Norte 35 Nordeste 0 1012.1 -0.2 76
2019-05-28 19:00:00 21.3 25 Norte 35 Nordeste 0 1011.8 -0.6 74
2019-05-28 18:00:00 21.7 23 Norte 30 Norte 0 1012 -0.6 72
2019-05-28 17:00:00 22.6 21 Norte 26 Norte 0 1012.3 -0.5 69
2019-05-28 16:00:00 22.8 20 Norte 26 Norte 0 1012.4 -0.5 66
2019-05-28 15:00:00 22.4 17 Norte 28 Nordeste 0 1012.6 -0.4 69
2019-05-28 14:00:00 22.9 19 Norte 32 Norte 0 1012.8 0 67
2019-05-28 13:00:00 22.9 24 Norte 32 Norte 0 1012.9 0.1 67
2019-05-28 12:00:00 22.3 27 Norte 33 Nordeste 0 1013 0.7 70
2019-05-28 11:00:00 22 23 Norte 30 Nordeste 0 1012.8 1 71
2019-05-28 10:00:00 20.2 20 Norte 32 Norte 0 1012.8 1.4 76
2019-05-28 09:00:00 20 21 Norte 32 Norte 0 1012.3 0.9 81
2019-05-28 08:00:00 19.7 24 Norte 30 Norte 0 1011.8 0.6 81
2019-05-28 07:00:00 19.6 14 Noroeste 26 Norte 0 1011.4 0.3 75
2019-05-28 06:00:00 19.6 9 Noroeste 18 Norte 0 1011.4 0.1 76
2019-05-28 05:00:00 19.4 13 Noroeste 28 Norte 0 1011.2 -0.5 77
2019-05-28 04:00:00 19.3 14 Noroeste 30 Noroeste 0 1011.1 -0.9 77
2019-05-28 03:00:00 19.5 21 Norte 33 Norte 0 1011.3 -0.7 79
2019-05-28 02:00:00 19.6 20 Norte 32 Norte 0 1011.7 0 80
2019-05-28 01:00:00 19.8 16 Norte 32 Norte 0 1012 0.6 79
2019-05-28 00:00:00 20.1 23 Norte 35 Norte 0 1012 0.9 81
2019-05-27 23:00:00 20.2 28 Norte 39 Norte 0 1011.7 0.8 80
2019-05-27 22:00:00 20.2 30 Norte 39 Norte 0 1011.4 0.6 81
2019-05-27 21:00:00 20.5 26 Norte 35 Nordeste 0 1011.1 0.2 81
2019-05-27 20:00:00 20.8 30 Norte 39 Norte 0 1010.9 -0.1 82
2019-05-27 19:00:00 21.1 27 Norte 39 Nordeste 0 1010.8 -0.5 81
2019-05-27 18:00:00 21.6 28 Norte 37 Norte 0 1010.9 -0.4 77
2019-05-27 17:00:00 22.2 29 Norte 39 Norte 0 1011 -0.5 75
2019-05-27 16:00:00 22.8 26 Norte 39 Norte 0 1011.3 -0.6 71
2019-05-27 15:00:00 22.8 26 Norte 35 Norte 0 1011.3 -0.7 71
2019-05-27 14:00:00 23.3 23 Norte 35 Norte 0 1011.5 -0.2 69
2019-05-27 13:00:00 23.5 22 Norte 32 Nordeste 0 1011.9 0.4 68
2019-05-27 12:00:00 22.5 24 Norte 32 Nordeste 0 1012 0.7 71
2019-05-27 11:00:00 22.1 23 Norte 30 Nordeste 0 1011.7 0.8 71
2019-05-27 10:00:00 21.4 21 Norte 28 Norte 0 1011.5 0.7 74
2019-05-27 09:00:00 20.9 18 Norte 24 Norte 0 1011.3 0.8 75
2019-05-27 08:00:00 19.1 10 Noroeste 22 Noroeste 0 1010.9 0.3 77
2019-05-27 07:00:00 18.8 14 Noroeste 26 Noroeste 0 1010.8 -0.2 78
2019-05-27 06:00:00 18.9 13 Noroeste 26 Norte 0 1010.5 -0.9 77
2019-05-27 05:00:00 19 16 Norte 24 Noroeste 0 1010.6 -1.3 77
2019-05-27 04:00:00 19.1 14 Noroeste 24 Norte 0 1011 -1.5 76
2019-05-27 03:00:00 19.4 13 Norte 24 Noroeste 0 1011.4 -1.3 76
2019-05-27 02:00:00 19.6 13 Noroeste 22 Noroeste 0 1011.9 -0.4 73
2019-05-27 01:00:00 19.7 13 Noroeste 21 Noroeste 0 1012.5 0.6 74
2019-05-27 00:00:00 19.8 12 Noroeste 22 Noroeste 0 1012.7 1.3 72